sensor_id;sensor_type;location;lat;lon;timestamp;pressure;altitude;pressure_sealevel;temperature;humidity
26043;BME280;13818;52.156;5.382;2023-03-26T00:00:14;100420.19;;;9.17;100.00
26043;BME280;13818;52.156;5.382;2023-03-26T00:02:41;100422.84;;;9.17;100.00
26043;BME280;13818;52.156;5.382;2023-03-26T00:05:08;100421.19;;;9.15;100.00
26043;BME280;13818;52.156;5.382;2023-03-26T00:07:36;100415.03;;;9.14;100.00
26043;BME280;13818;52.156;5.382;2023-03-26T00:10:03;100420.69;;;9.25;100.00
26043;BME280;13818;52.156;5.382;2023-03-26T00:12:31;100419.53;;;9.12;100.00
26043;BME280;13818;52.156;5.382;2023-03-26T00:14:57;100413.41;;;9.10;100.00
26043;BME280;13818;52.156;5.382;2023-03-26T00:17:23;100420.63;;;9.08;100.00
26043;BME280;13818;52.156;5.382;2023-03-26T00:19:50;100422.84;;;9.17;100.00
26043;BME280;13818;52.156;5.382;2023-03-26T00:22:18;100418.16;;;9.22;100.00
26043;BME280;13818;52.156;5.382;2023-03-26T00:24:46;100421.69;;;9.23;100.00
26043;BME280;13818;52.156;5.382;2023-03-26T00:27:14;100412.28;;;9.16;100.00
26043;BME280;13818;52.156;5.382;2023-03-26T00:29:41;100415.22;;;9.28;100.00
26043;BME280;13818;52.156;5.382;2023-03-26T00:32:08;100407.25;;;9.28;100.00
26043;BME280;13818;52.156;5.382;2023-03-26T00:34:34;100413.41;;;9.29;100.00
26043;BME280;13818;52.156;5.382;2023-03-26T00:37:01;100406.72;;;9.20;100.00
26043;BME280;13818;52.156;5.382;2023-03-26T00:39:27;100409.09;;;9.26;100.00
26043;BME280;13818;52.156;5.382;2023-03-26T00:42:01;100400.44;;;9.23;100.00
26043;BME280;13818;52.156;5.382;2023-03-26T00:44:31;100398.06;;;9.17;100.00
26043;BME280;13818;52.156;5.382;2023-03-26T00:46:58;100375.91;;;9.16;100.00
26043;BME280;13818;52.156;5.382;2023-03-26T00:49:24;100389.19;;;9.16;100.00
26043;BME280;13818;52.156;5.382;2023-03-26T00:51:51;100383.50;;;9.24;100.00
26043;BME280;13818;52.156;5.382;2023-03-26T00:54:18;100377.25;;;9.25;100.00
26043;BME280;13818;52.156;5.382;2023-03-26T00:56:44;100379.38;;;9.18;100.00
26043;BME280;13818;52.156;5.382;2023-03-26T00:59:12;100368.28;;;9.08;100.00
26043;BME280;13818;52.156;5.382;2023-03-26T01:01:38;100380.28;;;9.17;100.00
26043;BME280;13818;52.156;5.382;2023-03-26T01:04:26;100373.97;;;9.20;100.00
26043;BME280;13818;52.156;5.382;2023-03-26T01:06:55;100366.66;;;9.06;100.00
26043;BME280;13818;52.156;5.382;2023-03-26T01:09:28;100373.81;;;9.04;100.00
26043;BME280;13818;52.156;5.382;2023-03-26T01:11:58;100372.91;;;9.05;100.00
26043;BME280;13818;52.156;5.382;2023-03-26T01:14:27;100376.06;;;8.94;100.00
26043;BME280;13818;52.156;5.382;2023-03-26T01:16:55;100367.22;;;8.93;100.00
26043;BME280;13818;52.156;5.382;2023-03-26T01:19:26;100359.53;;;8.87;100.00
26043;BME280;13818;52.156;5.382;2023-03-26T01:21:54;100350.28;;;8.77;100.00
26043;BME280;13818;52.156;5.382;2023-03-26T01:24:23;100347.78;;;8.74;100.00
26043;BME280;13818;52.156;5.382;2023-03-26T01:27:03;100343.75;;;8.65;100.00
26043;BME280;13818;52.156;5.382;2023-03-26T01:29:40;100341.09;;;8.65;100.00
26043;BME280;13818;52.156;5.382;2023-03-26T01:32:23;100337.34;;;8.69;100.00
26043;BME280;13818;52.156;5.382;2023-03-26T01:35:02;100326.19;;;8.61;100.00
26043;BME280;13818;52.156;5.382;2023-03-26T01:37:38;100326.72;;;8.50;100.00
26043;BME280;13818;52.156;5.382;2023-03-26T01:40:13;100332.28;;;8.44;100.00
26043;BME280;13818;52.156;5.382;2023-03-26T01:42:47;100332.16;;;8.47;100.00
26043;BME280;13818;52.156;5.382;2023-03-26T01:45:20;100321.56;;;8.45;100.00
26043;BME280;13818;52.156;5.382;2023-03-26T01:47:49;100317.94;;;8.48;100.00
26043;BME280;13818;52.156;5.382;2023-03-26T01:50:15;100314.69;;;8.41;100.00
26043;BME280;13818;52.156;5.382;2023-03-26T01:52:42;100315.81;;;8.36;100.00
26043;BME280;13818;52.156;5.382;2023-03-26T01:55:10;100313.09;;;8.37;100.00
26043;BME280;13818;52.156;5.382;2023-03-26T01:57:46;100294.38;;;8.40;100.00
26043;BME280;13818;52.156;5.382;2023-03-26T02:00:20;100296.91;;;8.43;100.00
26043;BME280;13818;52.156;5.382;2023-03-26T02:02:59;100292.34;;;8.45;100.00
26043;BME280;13818;52.156;5.382;2023-03-26T02:05:30;100298.34;;;8.51;100.00
26043;BME280;13818;52.156;5.382;2023-03-26T02:08:04;100286.16;;;8.46;100.00
26043;BME280;13818;52.156;5.382;2023-03-26T02:10:38;100281.47;;;8.52;100.00
26043;BME280;13818;52.156;5.382;2023-03-26T02:13:06;100276.69;;;8.60;100.00
26043;BME280;13818;52.156;5.382;2023-03-26T02:15:33;100283.56;;;8.64;100.00
26043;BME280;13818;52.156;5.382;2023-03-26T02:18:00;100274.94;;;8.78;100.00
26043;BME280;13818;52.156;5.382;2023-03-26T02:20:28;100280.03;;;8.83;100.00
26043;BME280;13818;52.156;5.382;2023-03-26T02:22:55;100275.66;;;8.82;100.00
26043;BME280;13818;52.156;5.382;2023-03-26T02:25:22;100270.84;;;8.71;100.00
26043;BME280;13818;52.156;5.382;2023-03-26T02:27:51;100274.50;;;8.68;100.00
26043;BME280;13818;52.156;5.382;2023-03-26T02:30:21;100266.47;;;8.51;100.00
26043;BME280;13818;52.156;5.382;2023-03-26T02:32:51;100274.38;;;8.52;100.00
26043;BME280;13818;52.156;5.382;2023-03-26T02:35:19;100260.03;;;8.56;100.00
26043;BME280;13818;52.156;5.382;2023-03-26T02:37:46;100252.06;;;8.36;100.00
26043;BME280;13818;52.156;5.382;2023-03-26T02:40:15;100259.41;;;8.30;100.00
26043;BME280;13818;52.156;5.382;2023-03-26T02:42:42;100245.19;;;8.31;100.00
26043;BME280;13818;52.156;5.382;2023-03-26T02:45:11;100256.84;;;8.48;100.00
26043;BME280;13818;52.156;5.382;2023-03-26T02:47:37;100244.72;;;8.42;100.00
26043;BME280;13818;52.156;5.382;2023-03-26T02:50:04;100243.06;;;8.40;100.00
26043;BME280;13818;52.156;5.382;2023-03-26T02:52:33;100250.38;;;8.35;100.00
26043;BME280;13818;52.156;5.382;2023-03-26T02:55:00;100249.38;;;8.37;100.00
26043;BME280;13818;52.156;5.382;2023-03-26T02:57:27;100245.28;;;8.30;100.00
26043;BME280;13818;52.156;5.382;2023-03-26T02:59:53;100251.38;;;8.32;100.00
26043;BME280;13818;52.156;5.382;2023-03-26T03:02:21;100247.41;;;8.41;100.00
26043;BME280;13818;52.156;5.382;2023-03-26T03:04:48;100237.75;;;8.40;100.00
26043;BME280;13818;52.156;5.382;2023-03-26T03:07:15;100244.75;;;8.41;100.00
26043;BME280;13818;52.156;5.382;2023-03-26T03:09:42;100235.84;;;8.42;100.00
26043;BME280;13818;52.156;5.382;2023-03-26T03:12:08;100231.28;;;8.45;100.00
26043;BME280;13818;52.156;5.382;2023-03-26T03:14:35;100230.91;;;8.34;100.00
26043;BME280;13818;52.156;5.382;2023-03-26T03:17:02;100236.53;;;8.47;100.00
26043;BME280;13818;52.156;5.382;2023-03-26T03:19:30;100229.38;;;8.49;100.00
26043;BME280;13818;52.156;5.382;2023-03-26T03:21:56;100232.88;;;8.50;100.00
26043;BME280;13818;52.156;5.382;2023-03-26T03:24:24;100230.00;;;8.54;100.00
26043;BME280;13818;52.156;5.382;2023-03-26T03:26:51;100223.13;;;8.50;100.00
26043;BME280;13818;52.156;5.382;2023-03-26T03:29:22;100215.94;;;8.52;100.00
26043;BME280;13818;52.156;5.382;2023-03-26T03:31:48;100213.69;;;8.62;100.00
26043;BME280;13818;52.156;5.382;2023-03-26T03:34:15;100222.47;;;8.64;100.00
26043;BME280;13818;52.156;5.382;2023-03-26T03:36:43;100210.84;;;8.67;100.00
26043;BME280;13818;52.156;5.382;2023-03-26T03:39:13;100206.94;;;8.74;100.00
26043;BME280;13818;52.156;5.382;2023-03-26T03:41:39;100204.66;;;8.66;100.00
26043;BME280;13818;52.156;5.382;2023-03-26T03:44:06;100206.94;;;8.74;100.00
26043;BME280;13818;52.156;5.382;2023-03-26T03:46:32;100208.22;;;8.84;100.00
26043;BME280;13818;52.156;5.382;2023-03-26T03:48:59;100200.06;;;8.87;100.00
26043;BME280;13818;52.156;5.382;2023-03-26T03:51:26;100201.72;;;8.90;100.00
26043;BME280;13818;52.156;5.382;2023-03-26T03:53:53;100209.16;;;8.83;100.00
26043;BME280;13818;52.156;5.382;2023-03-26T03:56:20;100203.38;;;8.92;100.00
26043;BME280;13818;52.156;5.382;2023-03-26T03:58:48;100207.91;;;8.90;100.00
26043;BME280;13818;52.156;5.382;2023-03-26T04:01:15;100199.31;;;8.85;100.00
26043;BME280;13818;52.156;5.382;2023-03-26T04:03:42;100200.16;;;8.86;100.00
26043;BME280;13818;52.156;5.382;2023-03-26T04:06:10;100195.66;;;8.88;100.00
26043;BME280;13818;52.156;5.382;2023-03-26T04:08:37;100203.63;;;8.88;100.00
26043;BME280;13818;52.156;5.382;2023-03-26T04:11:05;100192.81;;;8.91;100.00
26043;BME280;13818;52.156;5.382;2023-03-26T04:13:31;100189.63;;;8.84;100.00
26043;BME280;13818;52.156;5.382;2023-03-26T04:15:58;100190.88;;;8.94;100.00
26043;BME280;13818;52.156;5.382;2023-03-26T04:18:25;100184.75;;;8.92;100.00
26043;BME280;13818;52.156;5.382;2023-03-26T04:20:52;100183.69;;;8.97;100.00
26043;BME280;13818;52.156;5.382;2023-03-26T04:23:20;100173.66;;;8.84;100.00
26043;BME280;13818;52.156;5.382;2023-03-26T04:25:49;100165.63;;;8.86;100.00
26043;BME280;13818;52.156;5.382;2023-03-26T04:28:25;100153.44;;;8.82;100.00
26043;BME280;13818;52.156;5.382;2023-03-26T04:30:55;100163.44;;;8.76;100.00
26043;BME280;13818;52.156;5.382;2023-03-26T04:33:25;100160.78;;;8.76;100.00
26043;BME280;13818;52.156;5.382;2023-03-26T04:35:52;100155.59;;;8.73;100.00
26043;BME280;13818;52.156;5.382;2023-03-26T04:38:21;100157.84;;;8.81;100.00
26043;BME280;13818;52.156;5.382;2023-03-26T04:40:48;100147.31;;;8.79;100.00
26043;BME280;13818;52.156;5.382;2023-03-26T04:43:15;100138.41;;;8.81;100.00
26043;BME280;13818;52.156;5.382;2023-03-26T04:45:44;100136.84;;;8.76;100.00
26043;BME280;13818;52.156;5.382;2023-03-26T04:48:12;100128.94;;;8.75;100.00
26043;BME280;13818;52.156;5.382;2023-03-26T04:50:39;100128.00;;;8.76;100.00
26043;BME280;13818;52.156;5.382;2023-03-26T04:53:09;100123.06;;;8.68;100.00
26043;BME280;13818;52.156;5.382;2023-03-26T04:55:41;100125.09;;;8.63;100.00
26043;BME280;13818;52.156;5.382;2023-03-26T04:58:10;100115.09;;;8.68;100.00
26043;BME280;13818;52.156;5.382;2023-03-26T05:00:38;100117.94;;;8.65;100.00
26043;BME280;13818;52.156;5.382;2023-03-26T05:03:08;100115.41;;;8.62;100.00
26043;BME280;13818;52.156;5.382;2023-03-26T05:05:34;100109.34;;;8.60;100.00
26043;BME280;13818;52.156;5.382;2023-03-26T05:08:01;100103.00;;;8.62;100.00
26043;BME280;13818;52.156;5.382;2023-03-26T05:10:27;100103.44;;;8.53;100.00
26043;BME280;13818;52.156;5.382;2023-03-26T05:12:55;100095.75;;;8.66;100.00
26043;BME280;13818;52.156;5.382;2023-03-26T05:15:21;100097.38;;;8.69;100.00
26043;BME280;13818;52.156;5.382;2023-03-26T05:17:48;100101.13;;;8.65;100.00
26043;BME280;13818;52.156;5.382;2023-03-26T05:20:19;100102.13;;;8.62;100.00
26043;BME280;13818;52.156;5.382;2023-03-26T05:22:46;100099.38;;;8.63;100.00
26043;BME280;13818;52.156;5.382;2023-03-26T05:25:13;100093.47;;;8.76;100.00
26043;BME280;13818;52.156;5.382;2023-03-26T05:27:41;100099.41;;;8.81;100.00
26043;BME280;13818;52.156;5.382;2023-03-26T05:30:07;100092.94;;;8.87;100.00
26043;BME280;13818;52.156;5.382;2023-03-26T05:32:34;100085.34;;;8.79;100.00
26043;BME280;13818;52.156;5.382;2023-03-26T05:35:02;100080.97;;;8.78;100.00
26043;BME280;13818;52.156;5.382;2023-03-26T05:37:30;100077.53;;;8.76;100.00
26043;BME280;13818;52.156;5.382;2023-03-26T05:39:57;100073.31;;;8.72;100.00
26043;BME280;13818;52.156;5.382;2023-03-26T05:42:24;100076.75;;;8.74;100.00
26043;BME280;13818;52.156;5.382;2023-03-26T05:44:50;100077.78;;;8.89;100.00
26043;BME280;13818;52.156;5.382;2023-03-26T05:47:17;100072.38;;;8.90;100.00
26043;BME280;13818;52.156;5.382;2023-03-26T05:49:43;100069.84;;;8.87;100.00
26043;BME280;13818;52.156;5.382;2023-03-26T05:52:11;100068.63;;;8.94;100.00
26043;BME280;13818;52.156;5.382;2023-03-26T05:54:42;100063.38;;;8.93;100.00
26043;BME280;13818;52.156;5.382;2023-03-26T05:57:09;100055.09;;;8.82;100.00
26043;BME280;13818;52.156;5.382;2023-03-26T05:59:36;100065.72;;;8.64;100.00
26043;BME280;13818;52.156;5.382;2023-03-26T06:02:03;100059.41;;;8.67;100.00
26043;BME280;13818;52.156;5.382;2023-03-26T06:04:29;100062.84;;;8.69;100.00
26043;BME280;13818;52.156;5.382;2023-03-26T06:06:56;100059.00;;;8.57;100.00
26043;BME280;13818;52.156;5.382;2023-03-26T06:09:23;100055.63;;;8.53;100.00
26043;BME280;13818;52.156;5.382;2023-03-26T06:11:51;100051.13;;;8.55;100.00
26043;BME280;13818;52.156;5.382;2023-03-26T06:14:17;100044.16;;;8.53;100.00
26043;BME280;13818;52.156;5.382;2023-03-26T06:16:44;100042.66;;;8.65;100.00
26043;BME280;13818;52.156;5.382;2023-03-26T06:19:10;100039.69;;;8.71;100.00
26043;BME280;13818;52.156;5.382;2023-03-26T06:21:37;100038.84;;;8.70;100.00
26043;BME280;13818;52.156;5.382;2023-03-26T06:24:04;100035.63;;;8.63;100.00
26043;BME280;13818;52.156;5.382;2023-03-26T06:26:30;100037.00;;;8.55;100.00
26043;BME280;13818;52.156;5.382;2023-03-26T06:28:59;100031.50;;;8.58;100.00
26043;BME280;13818;52.156;5.382;2023-03-26T06:31:26;100031.03;;;8.50;100.00
26043;BME280;13818;52.156;5.382;2023-03-26T06:33:52;100020.75;;;8.42;100.00
26043;BME280;13818;52.156;5.382;2023-03-26T06:36:18;100026.00;;;8.43;100.00
26043;BME280;13818;52.156;5.382;2023-03-26T06:38:45;100018.06;;;8.43;100.00
26043;BME280;13818;52.156;5.382;2023-03-26T06:41:12;100023.63;;;8.56;100.00
26043;BME280;13818;52.156;5.382;2023-03-26T06:43:38;100024.94;;;8.65;100.00
26043;BME280;13818;52.156;5.382;2023-03-26T06:46:06;100019.47;;;8.68;100.00
26043;BME280;13818;52.156;5.382;2023-03-26T06:48:33;100024.06;;;8.65;100.00
26043;BME280;13818;52.156;5.382;2023-03-26T06:50:59;100030.66;;;8.57;100.00
26043;BME280;13818;52.156;5.382;2023-03-26T06:53:26;100018.41;;;8.55;100.00
26043;BME280;13818;52.156;5.382;2023-03-26T06:55:52;100021.97;;;8.54;100.00
26043;BME280;13818;52.156;5.382;2023-03-26T06:58:20;100020.63;;;8.45;100.00
26043;BME280;13818;52.156;5.382;2023-03-26T07:00:47;100020.72;;;8.61;100.00
26043;BME280;13818;52.156;5.382;2023-03-26T07:03:19;100026.19;;;8.58;100.00
26043;BME280;13818;52.156;5.382;2023-03-26T07:05:46;100018.31;;;8.74;100.00
26043;BME280;13818;52.156;5.382;2023-03-26T07:08:13;100013.28;;;8.85;100.00
26043;BME280;13818;52.156;5.382;2023-03-26T07:10:40;100015.63;;;8.91;100.00
26043;BME280;13818;52.156;5.382;2023-03-26T07:13:06;100019.69;;;8.81;100.00
26043;BME280;13818;52.156;5.382;2023-03-26T07:15:33;100026.41;;;8.88;100.00
26043;BME280;13818;52.156;5.382;2023-03-26T07:17:59;100012.00;;;8.92;100.00
26043;BME280;13818;52.156;5.382;2023-03-26T07:20:28;100012.91;;;8.75;100.00
26043;BME280;13818;52.156;5.382;2023-03-26T07:22:55;100017.28;;;8.76;100.00
26043;BME280;13818;52.156;5.382;2023-03-26T07:25:22;100014.69;;;8.75;100.00
26043;BME280;13818;52.156;5.382;2023-03-26T07:27:58;100026.34;;;8.72;100.00
26043;BME280;13818;52.156;5.382;2023-03-26T07:30:30;100023.22;;;8.82;100.00
26043;BME280;13818;52.156;5.382;2023-03-26T07:33:04;100017.69;;;8.69;100.00
26043;BME280;13818;52.156;5.382;2023-03-26T07:35:36;100017.44;;;8.73;100.00
26043;BME280;13818;52.156;5.382;2023-03-26T07:38:29;100017.81;;;8.83;100.00
26043;BME280;13818;52.156;5.382;2023-03-26T07:41:05;100011.41;;;8.87;100.00
26043;BME280;13818;52.156;5.382;2023-03-26T07:43:52;100014.53;;;8.78;100.00
26043;BME280;13818;52.156;5.382;2023-03-26T07:46:28;100013.34;;;8.84;100.00
26043;BME280;13818;52.156;5.382;2023-03-26T07:48:56;100018.66;;;8.84;100.00
26043;BME280;13818;52.156;5.382;2023-03-26T07:51:26;100016.81;;;8.86;100.00
26043;BME280;13818;52.156;5.382;2023-03-26T07:53:54;100010.25;;;8.75;100.00
26043;BME280;13818;52.156;5.382;2023-03-26T07:56:25;100012.50;;;8.66;100.00
26043;BME280;13818;52.156;5.382;2023-03-26T07:59:00;100004.16;;;8.73;100.00
26043;BME280;13818;52.156;5.382;2023-03-26T08:01:42;100016.06;;;8.66;100.00
26043;BME280;13818;52.156;5.382;2023-03-26T08:04:23;100009.38;;;8.75;100.00
26043;BME280;13818;52.156;5.382;2023-03-26T08:06:58;100008.75;;;8.87;100.00
26043;BME280;13818;52.156;5.382;2023-03-26T08:09:30;99999.03;;;8.86;100.00
26043;BME280;13818;52.156;5.382;2023-03-26T08:12:05;100003.22;;;8.74;100.00
26043;BME280;13818;52.156;5.382;2023-03-26T08:14:46;99998.22;;;8.68;100.00
26043;BME280;13818;52.156;5.382;2023-03-26T08:17:18;100000.31;;;8.79;100.00
26043;BME280;13818;52.156;5.382;2023-03-26T08:19:58;99995.41;;;8.71;100.00
26043;BME280;13818;52.156;5.382;2023-03-26T08:22:33;100003.06;;;8.77;100.00
26043;BME280;13818;52.156;5.382;2023-03-26T08:25:13;100005.03;;;8.74;100.00
26043;BME280;13818;52.156;5.382;2023-03-26T08:27:46;100003.44;;;8.70;100.00
26043;BME280;13818;52.156;5.382;2023-03-26T08:30:18;99995.88;;;8.62;100.00
26043;BME280;13818;52.156;5.382;2023-03-26T08:32:53;100004.84;;;8.77;100.00
26043;BME280;13818;52.156;5.382;2023-03-26T08:35:20;100005.88;;;8.74;100.00
26043;BME280;13818;52.156;5.382;2023-03-26T08:37:48;100003.91;;;8.78;100.00
26043;BME280;13818;52.156;5.382;2023-03-26T08:40:28;100003.09;;;8.60;100.00
26043;BME280;13818;52.156;5.382;2023-03-26T08:43:19;100000.47;;;8.58;100.00
26043;BME280;13818;52.156;5.382;2023-03-26T08:46:02;100010.03;;;8.62;100.00
26043;BME280;13818;52.156;5.382;2023-03-26T08:48:55;100000.97;;;8.49;100.00
26043;BME280;13818;52.156;5.382;2023-03-26T08:51:49;100007.81;;;8.71;100.00
26043;BME280;13818;52.156;5.382;2023-03-26T09:00:57;99998.44;;;8.63;100.00
26043;BME280;13818;52.156;5.382;2023-03-26T09:03:57;100007.78;;;8.55;100.00
26043;BME280;13818;52.156;5.382;2023-03-26T09:07:03;100009.22;;;8.43;100.00
26043;BME280;13818;52.156;5.382;2023-03-26T09:10:03;100011.88;;;8.43;100.00
26043;BME280;13818;52.156;5.382;2023-03-26T09:12:48;100015.63;;;8.39;100.00
26043;BME280;13818;52.156;5.382;2023-03-26T09:15:52;100017.47;;;8.37;100.00
26043;BME280;13818;52.156;5.382;2023-03-26T09:18:42;100018.25;;;8.21;100.00
26043;BME280;13818;52.156;5.382;2023-03-26T09:27:53;100012.72;;;8.26;100.00
26043;BME280;13818;52.156;5.382;2023-03-26T09:33:53;100013.78;;;8.22;100.00
26043;BME280;13818;52.156;5.382;2023-03-26T09:36:32;100007.34;;;8.27;100.00
26043;BME280;13818;52.156;5.382;2023-03-26T09:39:09;100006.53;;;8.25;100.00
26043;BME280;13818;52.156;5.382;2023-03-26T09:41:42;100024.28;;;8.25;100.00
26043;BME280;13818;52.156;5.382;2023-03-26T09:44:37;100014.66;;;8.22;100.00
26043;BME280;13818;52.156;5.382;2023-03-26T09:47:28;100012.53;;;8.11;100.00
26043;BME280;13818;52.156;5.382;2023-03-26T09:50:10;100022.38;;;8.27;100.00
26043;BME280;13818;52.156;5.382;2023-03-26T09:52:50;100028.66;;;8.26;100.00
26043;BME280;13818;52.156;5.382;2023-03-26T09:55:35;100023.78;;;8.17;100.00
26043;BME280;13818;52.156;5.382;2023-03-26T09:58:26;100022.47;;;8.25;100.00
26043;BME280;13818;52.156;5.382;2023-03-26T10:01:02;100026.06;;;8.24;100.00
26043;BME280;13818;52.156;5.382;2023-03-26T10:03:39;100018.34;;;8.20;100.00
26043;BME280;13818;52.156;5.382;2023-03-26T10:06:21;100030.13;;;8.31;100.00
26043;BME280;13818;52.156;5.382;2023-03-26T10:09:06;100034.34;;;8.36;100.00
26043;BME280;13818;52.156;5.382;2023-03-26T10:11:55;100030.53;;;8.41;100.00
26043;BME280;13818;52.156;5.382;2023-03-26T10:14:31;100035.75;;;8.43;100.00
26043;BME280;13818;52.156;5.382;2023-03-26T10:17:08;100031.19;;;8.46;100.00
26043;BME280;13818;52.156;5.382;2023-03-26T10:19:51;100039.56;;;8.56;100.00
26043;BME280;13818;52.156;5.382;2023-03-26T10:22:34;100031.19;;;8.46;100.00
26043;BME280;13818;52.156;5.382;2023-03-26T10:25:28;100037.47;;;8.44;100.00
26043;BME280;13818;52.156;5.382;2023-03-26T10:28:11;100037.25;;;8.31;100.00
26043;BME280;13818;52.156;5.382;2023-03-26T10:33:47;100052.56;;;8.07;100.00
26043;BME280;13818;52.156;5.382;2023-03-26T10:36:26;100043.19;;;8.00;100.00
26043;BME280;13818;52.156;5.382;2023-03-26T10:39:15;100052.06;;;7.98;100.00
26043;BME280;13818;52.156;5.382;2023-03-26T10:41:55;100046.69;;;8.00;100.00
26043;BME280;13818;52.156;5.382;2023-03-26T10:44:32;100058.38;;;8.15;100.00
26043;BME280;13818;52.156;5.382;2023-03-26T10:47:25;100058.06;;;8.21;100.00
26043;BME280;13818;52.156;5.382;2023-03-26T10:50:17;100058.09;;;8.02;100.00
26043;BME280;13818;52.156;5.382;2023-03-26T10:52:51;100053.81;;;8.00;100.00
26043;BME280;13818;52.156;5.382;2023-03-26T10:55:22;100060.31;;;8.11;100.00
26043;BME280;13818;52.156;5.382;2023-03-26T10:57:52;100061.13;;;7.94;100.00
26043;BME280;13818;52.156;5.382;2023-03-26T11:00:21;100060.53;;;8.07;100.00
26043;BME280;13818;52.156;5.382;2023-03-26T11:03:10;100057.56;;;8.13;100.00
26043;BME280;13818;52.156;5.382;2023-03-26T11:05:48;100076.19;;;8.30;100.00
26043;BME280;13818;52.156;5.382;2023-03-26T11:08:20;100070.97;;;8.29;100.00
26043;BME280;13818;52.156;5.382;2023-03-26T11:10:55;100069.63;;;8.20;100.00
26043;BME280;13818;52.156;5.382;2023-03-26T11:13:37;100076.78;;;8.37;100.00
26043;BME280;13818;52.156;5.382;2023-03-26T11:16:14;100077.63;;;8.38;100.00
26043;BME280;13818;52.156;5.382;2023-03-26T11:18:46;100083.28;;;8.49;100.00
26043;BME280;13818;52.156;5.382;2023-03-26T11:21:23;100074.34;;;8.33;100.00
26043;BME280;13818;52.156;5.382;2023-03-26T11:24:02;100081.50;;;8.30;100.00
26043;BME280;13818;52.156;5.382;2023-03-26T11:26:41;100088.41;;;8.35;100.00
26043;BME280;13818;52.156;5.382;2023-03-26T11:29:19;100102.38;;;8.38;100.00
26043;BME280;13818;52.156;5.382;2023-03-26T11:31:56;100089.00;;;8.22;100.00
26043;BME280;13818;52.156;5.382;2023-03-26T11:34:29;100090.41;;;8.29;100.00
26043;BME280;13818;52.156;5.382;2023-03-26T11:37:01;100094.78;;;8.30;100.00
26043;BME280;13818;52.156;5.382;2023-03-26T11:39:37;100103.53;;;8.33;100.00
26043;BME280;13818;52.156;5.382;2023-03-26T11:42:08;100094.84;;;8.48;100.00
26043;BME280;13818;52.156;5.382;2023-03-26T11:44:38;100106.97;;;8.54;100.00
26043;BME280;13818;52.156;5.382;2023-03-26T11:47:06;100104.81;;;8.43;100.00
26043;BME280;13818;52.156;5.382;2023-03-26T11:49:35;100092.59;;;8.58;100.00
26043;BME280;13818;52.156;5.382;2023-03-26T11:52:03;100093.13;;;8.47;100.00
26043;BME280;13818;52.156;5.382;2023-03-26T11:54:31;100099.56;;;8.60;100.00
26043;BME280;13818;52.156;5.382;2023-03-26T11:57:01;100104.41;;;8.70;100.00
26043;BME280;13818;52.156;5.382;2023-03-26T11:59:33;100093.72;;;8.71;100.00
26043;BME280;13818;52.156;5.382;2023-03-26T12:02:18;100109.25;;;8.61;100.00
26043;BME280;13818;52.156;5.382;2023-03-26T12:04:50;100104.94;;;8.59;100.00
26043;BME280;13818;52.156;5.382;2023-03-26T12:07:22;100112.13;;;8.57;100.00
26043;BME280;13818;52.156;5.382;2023-03-26T12:09:57;100115.16;;;8.49;100.00
26043;BME280;13818;52.156;5.382;2023-03-26T12:12:25;100111.59;;;8.68;100.00
26043;BME280;13818;52.156;5.382;2023-03-26T12:14:53;100110.59;;;8.88;100.00
26043;BME280;13818;52.156;5.382;2023-03-26T12:17:26;100103.00;;;8.98;100.00
26043;BME280;13818;52.156;5.382;2023-03-26T12:19:55;100113.63;;;8.98;100.00
26043;BME280;13818;52.156;5.382;2023-03-26T12:22:29;100114.31;;;9.19;100.00
26043;BME280;13818;52.156;5.382;2023-03-26T12:25:11;100118.59;;;9.39;100.00
26043;BME280;13818;52.156;5.382;2023-03-26T12:27:42;100120.56;;;9.35;100.00
26043;BME280;13818;52.156;5.382;2023-03-26T12:30:17;100126.28;;;9.27;100.00
26043;BME280;13818;52.156;5.382;2023-03-26T12:32:46;100126.38;;;9.08;100.00
26043;BME280;13818;52.156;5.382;2023-03-26T12:35:15;100127.91;;;9.30;100.00
26043;BME280;13818;52.156;5.382;2023-03-26T12:37:45;100141.72;;;9.54;100.00
26043;BME280;13818;52.156;5.382;2023-03-26T12:40:34;100132.03;;;9.53;100.00
26043;BME280;13818;52.156;5.382;2023-03-26T12:43:03;100135.22;;;9.60;100.00
26043;BME280;13818;52.156;5.382;2023-03-26T12:45:37;100149.31;;;9.62;100.00
26043;BME280;13818;52.156;5.382;2023-03-26T12:48:05;100141.06;;;9.67;100.00
26043;BME280;13818;52.156;5.382;2023-03-26T12:50:51;100143.13;;;9.61;100.00
26043;BME280;13818;52.156;5.382;2023-03-26T12:53:38;100143.09;;;9.46;100.00
26043;BME280;13818;52.156;5.382;2023-03-26T12:56:18;100144.72;;;9.48;100.00
26043;BME280;13818;52.156;5.382;2023-03-26T12:58:57;100160.53;;;9.51;100.00
26043;BME280;13818;52.156;5.382;2023-03-26T13:01:33;100156.72;;;9.73;100.00
26043;BME280;13818;52.156;5.382;2023-03-26T13:04:12;100157.13;;;9.65;100.00
26043;BME280;13818;52.156;5.382;2023-03-26T13:06:44;100160.53;;;9.51;100.00
26043;BME280;13818;52.156;5.382;2023-03-26T13:09:48;100154.47;;;9.65;100.00
26043;BME280;13818;52.156;5.382;2023-03-26T13:12:28;100159.00;;;9.97;100.00
26043;BME280;13818;52.156;5.382;2023-03-26T13:15:15;100165.53;;;9.91;100.00
26043;BME280;13818;52.156;5.382;2023-03-26T13:17:51;100176.75;;;9.80;100.00
26043;BME280;13818;52.156;5.382;2023-03-26T13:20:25;100169.31;;;10.03;100.00
26043;BME280;13818;52.156;5.382;2023-03-26T13:23:00;100169.94;;;9.74;100.00
26043;BME280;13818;52.156;5.382;2023-03-26T13:25:39;100165.16;;;9.81;100.00
26043;BME280;13818;52.156;5.382;2023-03-26T13:28:18;100171.03;;;9.70;100.00
26043;BME280;13818;52.156;5.382;2023-03-26T13:30:56;100169.47;;;10.00;100.00
26043;BME280;13818;52.156;5.382;2023-03-26T13:33:34;100188.66;;;10.06;100.00
26043;BME280;13818;52.156;5.382;2023-03-26T13:36:08;100186.03;;;9.89;100.00